Time;durP1;ratioP1;P1;durP2;ratioP2;P2;SDS_P1;SDS_P2;PMS_P1;PMS_P2;Temp;Humidity;BMP_temperature;BMP_pressure;BME280_temperature;BME280_humidity;BME280_pressure;Samples;Min_cycle;Max_cycle;Signal;HPM_P1;HPM_P2
2023/10/16 00:01:38;;;;;;;0.00;0.00;;;;;;;8.23;100.00;102369.19;5113608;28;20482;-43
2023/10/16 00:04:04;;;;;;;0.00;0.00;;;;;;;8.23;100.00;102366.53;5112815;28;20493;-43
2023/10/16 00:06:30;;;;;;;0.00;0.00;;;;;;;8.12;100.00;102370.09;5112673;28;20063;-44
2023/10/16 00:09:00;;;;;;;0.00;0.00;;;;;;;8.03;100.00;102371.72;5112723;28;20020;-43
2023/10/16 00:11:25;;;;;;;0.00;0.00;;;;;;;8.05;100.00;102379.63;5095247;28;20147;-43
2023/10/16 00:13:52;;;;;;;0.00;0.00;;;;;;;8.07;100.00;102375.84;5112705;28;20067;-44
2023/10/16 00:16:20;;;;;;;0.00;0.00;;;;;;;8.09;100.00;102375.72;5112663;28;20065;-44
2023/10/16 00:18:46;;;;;;;0.00;0.00;;;;;;;8.07;100.00;102367.78;5112673;28;20032;-48
2023/10/16 00:21:13;;;;;;;0.00;0.00;;;;;;;8.10;100.00;102366.69;5112450;28;20519;-44
2023/10/16 00:23:39;;;;;;;0.00;0.00;;;;;;;8.07;100.00;102366.94;5112529;28;20024;-45
2023/10/16 00:26:10;;;;;;;0.00;0.00;;;;;;;8.06;100.00;102376.84;5112582;28;20470;-44
2023/10/16 00:28:35;;;;;;;0.00;0.00;;;;;;;8.05;100.00;102374.28;5112146;28;20102;-43
2023/10/16 00:31:01;;;;;;;0.00;0.00;;;;;;;8.03;100.00;102369.06;5112841;28;20118;-44
2023/10/16 00:33:26;;;;;;;0.00;0.00;;;;;;;7.98;100.00;102362.34;5112556;28;20420;-44
2023/10/16 00:35:51;;;;;;;0.00;0.00;;;;;;;7.93;100.00;102376.16;5112469;28;20489;-45
2023/10/16 00:38:19;;;;;;;0.00;0.00;;;;;;;7.88;100.00;102364.97;5112354;28;20063;-42
2023/10/16 00:43:32;;;;;;;0.00;0.00;;;;;;;7.80;100.00;102364.75;5113076;28;20061;-43
2023/10/16 00:46:11;;;;;;;0.00;0.00;;;;;;;7.71;100.00;102377.06;5111856;28;20400;-45
2023/10/16 00:48:38;;;;;;;0.00;0.00;;;;;;;7.67;100.00;102372.94;5111876;28;20031;-45
2023/10/16 00:51:08;;;;;;;0.00;0.00;;;;;;;7.65;100.00;102366.84;5092958;28;20020;-45
2023/10/16 00:53:35;;;;;;;0.00;0.00;;;;;;;7.58;100.00;102366.50;5110992;28;20390;-47
2023/10/16 00:56:07;;;;;;;0.00;0.00;;;;;;;7.56;100.00;102362.25;5110012;28;20090;-44
2023/10/16 00:58:34;;;;;;;0.00;0.00;;;;;;;7.52;100.00;102364.31;5092602;28;20027;-46
2023/10/16 01:01:02;;;;;;;0.00;0.00;;;;;;;7.51;100.00;102364.44;5110274;28;20026;-44
2023/10/16 01:03:31;;;;;;;0.00;0.00;;;;;;;7.48;100.00;102362.88;5073571;28;1082586;-43
2023/10/16 01:05:58;;;;;;;0.00;0.00;;;;;;;7.45;100.00;102365.78;5111540;28;20059;-42
2023/10/16 01:08:25;;;;;;;0.00;0.00;;;;;;;7.41;100.00;102369.69;5111822;28;20019;-45
2023/10/16 01:10:50;;;;;;;0.00;0.00;;;;;;;7.39;100.00;102363.59;5110415;28;20024;-47
2023/10/16 01:13:16;;;;;;;0.00;0.00;;;;;;;7.40;100.00;102368.00;5126359;27;20106;-44
2023/10/16 01:15:50;;;;;;;0.00;0.00;;;;;;;7.47;100.00;102362.00;5127479;27;20043;-43
2023/10/16 01:18:16;;;;;;;0.00;0.00;;;;;;;7.48;100.00;102362.88;5109935;28;20055;-44
2023/10/16 01:20:47;;;;;;;0.00;0.00;;;;;;;7.48;100.00;102370.91;5111195;28;20051;-47
2023/10/16 01:23:17;;;;;;;0.00;0.00;;;;;;;7.46;100.00;102356.78;5112714;28;20109;-47
2023/10/16 01:25:46;;;;;;;0.00;0.00;;;;;;;7.41;100.00;102359.81;5111698;28;20031;-44
2023/10/16 01:28:12;;;;;;;0.00;0.00;;;;;;;7.36;100.00;102353.13;5110166;28;20203;-47
2023/10/16 01:30:40;;;;;;;0.00;0.00;;;;;;;7.33;100.00;102356.91;5111503;28;20424;-48
2023/10/16 01:33:07;;;;;;;0.00;0.00;;;;;;;7.29;100.00;102351.91;5094995;28;20397;-42
2023/10/16 01:35:32;;;;;;;0.00;0.00;;;;;;;7.23;100.00;102351.44;5112412;28;20020;-44
2023/10/16 01:37:58;;;;;;;0.00;0.00;;;;;;;7.21;100.00;102348.06;5110710;28;20102;-43
2023/10/16 01:40:25;;;;;;;0.00;0.00;;;;;;;7.18;100.00;102342.91;5111191;28;20028;-43
2023/10/16 01:42:54;;;;;;;0.00;0.00;;;;;;;7.17;100.00;102341.22;5110592;28;20523;-43
2023/10/16 01:45:23;;;;;;;0.00;0.00;;;;;;;7.09;100.00;102335.63;5112522;28;20408;-41
2023/10/16 01:47:48;;;;;;;0.00;0.00;;;;;;;7.06;100.00;102343.03;5112454;28;20481;-43
2023/10/16 01:50:21;;;;;;;0.00;0.00;;;;;;;7.00;100.00;102337.22;5112852;28;20035;-45
2023/10/16 01:52:47;;;;;;;0.00;0.00;;;;;;;7.00;100.00;102342.59;5112347;28;20474;-43
2023/10/16 01:55:16;;;;;;;0.00;0.00;;;;;;;6.99;100.00;102340.00;5113038;28;20416;-42
2023/10/16 01:57:44;;;;;;;0.00;0.00;;;;;;;6.96;100.00;102342.94;5109847;28;20023;-44
2023/10/16 02:00:18;;;;;;;0.00;0.00;;;;;;;6.94;100.00;102335.03;5109719;28;20039;-42
2023/10/16 02:02:45;;;;;;;0.00;0.00;;;;;;;6.91;100.00;102340.63;5108882;28;20082;-43
2023/10/16 02:05:15;;;;;;;0.00;0.00;;;;;;;6.92;100.00;102339.63;5110924;28;20050;-43
2023/10/16 02:07:43;;;;;;;0.00;0.00;;;;;;;6.92;100.00;102336.13;5111013;28;20405;-42
2023/10/16 02:10:15;;;;;;;0.00;0.00;;;;;;;6.92;100.00;102341.47;5111600;28;20023;-41
2023/10/16 02:12:40;;;;;;;0.00;0.00;;;;;;;6.93;100.00;102356.56;5109690;28;20062;-48
2023/10/16 02:15:08;;;;;;;0.00;0.00;;;;;;;6.95;100.00;102354.59;5111667;28;20047;-42
2023/10/16 02:17:33;;;;;;;0.00;0.00;;;;;;;6.99;100.00;102354.25;5110765;28;20485;-42
2023/10/16 02:19:59;;;;;;;0.00;0.00;;;;;;;7.08;100.00;102343.78;5111744;28;20118;-40
2023/10/16 02:22:24;;;;;;;0.00;0.00;;;;;;;7.16;100.00;102344.88;5108990;28;20039;-42
2023/10/16 02:24:50;;;;;;;0.00;0.00;;;;;;;7.16;100.00;102350.25;5110707;28;20023;-47
2023/10/16 02:27:18;;;;;;;0.00;0.00;;;;;;;7.18;100.00;102337.56;5110269;28;20033;-46
2023/10/16 02:29:45;;;;;;;;;;;;;;;7.23;100.00;102340.72;5111340;28;20050;-42
2023/10/16 02:32:12;;;;;;;0.00;0.00;;;;;;;7.22;100.00;102339.03;5110819;28;19915;-43
2023/10/16 02:34:37;;;;;;;0.00;0.00;;;;;;;7.25;100.00;102333.44;5110279;28;20110;-46
2023/10/16 02:37:06;;;;;;;0.00;0.00;;;;;;;7.25;100.00;102330.75;5110255;28;20106;-45
2023/10/16 02:39:37;;;;;;;0.00;0.00;;;;;;;7.24;100.00;102330.84;5111547;28;20537;-42
2023/10/16 02:42:08;;;;;;;0.00;0.00;;;;;;;7.28;100.00;102336.84;5110767;28;20063;-42
2023/10/16 02:44:38;;;;;;;0.00;0.00;;;;;;;7.33;100.00;102337.31;5094388;28;20512;-42
2023/10/16 02:47:06;;;;;;;0.00;0.00;;;;;;;7.39;100.00;102334.13;5111027;28;20340;-42
2023/10/16 02:49:33;;;;;;;0.00;0.00;;;;;;;7.39;100.00;102328.78;5111621;28;20538;-44
2023/10/16 02:51:58;;;;;;;0.00;0.00;;;;;;;7.44;100.00;102326.56;5110647;28;20020;-44
2023/10/16 02:54:24;;;;;;;0.00;0.00;;;;;;;7.44;100.00;102321.22;5110861;28;20043;-44
2023/10/16 02:56:50;;;;;;;0.00;0.00;;;;;;;7.46;100.00;102313.91;5110790;28;20015;-41
2023/10/16 02:59:18;;;;;;;0.00;0.00;;;;;;;7.50;100.00;102306.47;5111078;28;20101;-45
2023/10/16 03:01:45;;;;;;;0.00;0.00;;;;;;;7.53;100.00;102301.72;5109746;28;20079;-44
2023/10/16 03:04:10;;;;;;;0.00;0.00;;;;;;;7.54;100.00;102300.75;5110403;28;20107;-46
2023/10/16 03:06:39;;;;;;;0.00;0.00;;;;;;;7.52;100.00;102297.34;5110611;28;20422;-44
2023/10/16 03:11:49;;;;;;;0.00;0.00;;;;;;;7.48;100.00;102302.09;5111180;28;20046;-44
2023/10/16 03:14:16;;;;;;;0.00;0.00;;;;;;;7.48;100.00;102301.25;5110923;28;20107;-44
2023/10/16 03:16:41;;;;;;;0.00;0.00;;;;;;;7.47;100.00;102296.84;5110676;28;20477;-43
2023/10/16 03:19:10;;;;;;;0.00;0.00;;;;;;;7.46;100.00;102297.84;5110852;28;20028;-44
2023/10/16 03:21:35;;;;;;;;;;;;;;;7.47;100.00;102304.88;5111343;28;20473;-44
2023/10/16 03:24:00;;;;;;;0.00;0.00;;;;;;;7.46;100.00;102303.19;5111141;28;19904;-44
2023/10/16 03:26:28;;;;;;;0.00;0.00;;;;;;;7.47;100.00;102310.25;5110592;28;20024;-44
2023/10/16 03:28:54;;;;;;;0.00;0.00;;;;;;;7.49;100.00;102308.31;5111072;28;20442;-44
2023/10/16 03:31:20;;;;;;;0.00;0.00;;;;;;;7.51;100.00;102301.00;5110957;28;20036;-45
2023/10/16 03:33:46;;;;;;;0.00;0.00;;;;;;;7.54;100.00;102300.75;5109938;28;20077;-46
2023/10/16 03:36:12;;;;;;;0.00;0.00;;;;;;;7.53;100.00;102292.81;5110776;28;20381;-46
2023/10/16 03:38:38;;;;;;;0.00;0.00;;;;;;;7.52;100.00;102305.38;5111229;28;20385;-44
2023/10/16 03:43:44;;;;;;;0.00;0.00;;;;;;;7.51;100.00;102301.00;5112014;28;20114;-43
2023/10/16 03:46:10;;;;;;;0.00;0.00;;;;;;;7.50;100.00;102299.28;5112748;28;20050;-44
2023/10/16 03:48:38;;;;;;;0.00;0.00;;;;;;;7.47;100.00;102299.53;5109835;28;20165;-43
2023/10/16 03:51:06;;;;;;;0.00;0.00;;;;;;;7.44;100.00;102299.78;5111392;28;20052;-44
2023/10/16 03:53:32;;;;;;;0.00;0.00;;;;;;;7.42;100.00;102299.06;5110859;28;20362;-43
2023/10/16 03:55:58;;;;;;;0.00;0.00;;;;;;;7.44;100.00;102302.47;5112171;28;20028;-43
2023/10/16 03:58:23;;;;;;;0.00;0.00;;;;;;;7.45;100.00;102305.03;5112222;28;20038;-42
2023/10/16 04:00:56;;;;;;;0.00;0.00;;;;;;;7.48;100.00;102306.63;5121798;27;20328;-42
2023/10/16 04:03:23;;;;;;;0.00;0.00;;;;;;;7.50;100.00;102299.28;5103639;28;20051;-44
2023/10/16 04:05:49;;;;;;;0.00;0.00;;;;;;;7.53;100.00;102301.72;5114041;28;20051;-43
2023/10/16 04:08:15;;;;;;;0.00;0.00;;;;;;;7.52;100.00;102305.38;5120293;27;20041;-46
2023/10/16 04:10:47;;;;;;;0.00;0.00;;;;;;;7.52;100.00;102293.81;5121734;27;20023;-43
2023/10/16 04:13:16;;;;;;;0.00;0.00;;;;;;;7.47;100.00;102295.03;5113545;28;20351;-49
2023/10/16 04:18:18;;;;;;;0.00;0.00;;;;;;;7.40;100.00;102290.31;5114258;28;20168;-42
2023/10/16 04:20:44;;;;;;;0.00;0.00;;;;;;;7.35;100.00;102290.69;5113754;28;20118;-42
2023/10/16 04:29:20;;;;;;;0.00;0.00;;;;;;;7.36;100.00;102296.88;5114089;28;20134;-44
2023/10/16 04:34:52;;;;;;;0.00;0.00;;;;;;;7.40;100.00;102268.91;5113365;28;20092;-44
2023/10/16 04:50:27;;;;;;;0.00;0.00;;;;;;;7.53;100.00;102287.47;5096827;28;20514;-43
2023/10/16 05:17:21;;;;;;;0.00;0.00;;;;;;;7.79;100.00;102266.53;5112381;28;20041;-44
2023/10/16 05:19:53;;;;;;;0.00;0.00;;;;;;;7.75;100.00;102259.75;5110315;28;20023;-46
2023/10/16 06:14:11;;;;;;;0.00;0.00;;;;;;;7.89;100.00;102265.63;5094056;28;20042;-44
2023/10/16 06:16:40;;;;;;;0.00;0.00;;;;;;;7.91;100.00;102268.19;5110342;28;20043;-44
2023/10/16 06:19:17;;;;;;;0.00;0.00;;;;;;;7.91;100.00;102274.41;5105959;28;20486;-43
2023/10/16 06:21:46;;;;;;;0.00;0.00;;;;;;;7.91;100.00;102273.56;5111034;28;20036;-44
2023/10/16 06:24:47;;;;;;;0.00;0.00;;;;;;;7.93;100.00;102274.28;5102267;28;20027;-43
2023/10/16 06:27:19;;;;;;;0.00;0.00;;;;;;;7.93;100.00;102279.66;5111124;28;20628;-44
2023/10/16 06:29:51;;;;;;;0.00;0.00;;;;;;;7.94;100.00;102272.44;5108877;28;20050;-42
2023/10/16 06:32:25;;;;;;;0.00;0.00;;;;;;;7.96;100.00;102273.19;5113559;28;20110;-41
2023/10/16 06:34:52;;;;;;;0.00;0.00;;;;;;;8.01;100.00;102279.84;5112491;27;20026;-46
2023/10/16 06:37:17;;;;;;;0.00;0.00;;;;;;;8.00;100.00;102275.44;5107682;28;20110;-43
2023/10/16 06:39:44;;;;;;;0.00;0.00;;;;;;;8.01;100.00;102285.19;5110859;28;20439;-42
2023/10/16 06:42:17;;;;;;;0.00;0.00;;;;;;;8.03;100.00;102283.25;5099773;28;20191;-44
2023/10/16 06:44:46;;;;;;;0.00;0.00;;;;;;;8.04;100.00;102290.31;5103964;28;20039;-45
2023/10/16 06:47:12;;;;;;;0.00;0.00;;;;;;;8.06;100.00;102283.00;5103251;28;20028;-44
2023/10/16 06:49:38;;;;;;;0.00;0.00;;;;;;;8.16;100.00;102283.03;5105584;28;20088;-43
2023/10/16 06:52:05;;;;;;;0.00;0.00;;;;;;;8.21;100.00;102290.69;5102144;28;20024;-44
2023/10/16 06:54:39;;;;;;;0.00;0.00;;;;;;;8.26;100.00;102296.50;5086136;27;20019;-45
2023/10/16 06:57:10;;;;;;;0.00;0.00;;;;;;;8.45;100.00;102296.69;5104502;28;20103;-44
2023/10/16 06:59:45;;;;;;;0.00;0.00;;;;;;;8.54;100.00;102303.94;5117971;28;20038;-46
2023/10/16 07:02:15;;;;;;;0.00;0.00;;;;;;;8.63;100.00;102304.94;5102348;28;20036;-45
2023/10/16 07:04:47;;;;;;;0.00;0.00;;;;;;;8.63;100.00;102304.94;5104511;28;20146;-43
2023/10/16 07:07:15;;;;;;;0.00;0.00;;;;;;;8.62;100.00;102305.09;5102701;28;20457;-47
2023/10/16 07:09:47;;;;;;;0.00;0.00;;;;;;;8.66;100.00;102314.56;5103983;28;20038;-47
2023/10/16 07:12:22;;;;;;;0.00;0.00;;;;;;;8.72;100.00;102303.31;5101493;28;20501;-45
2023/10/16 07:14:55;;;;;;;0.00;0.00;;;;;;;8.78;100.00;102298.25;5098553;28;20590;-44
2023/10/16 07:17:27;;;;;;;0.00;0.00;;;;;;;8.84;100.00;102310.28;5101140;28;20413;-45
2023/10/16 07:20:00;;;;;;;0.00;0.00;;;;;;;8.82;100.00;102309.59;5107153;28;20119;-42
2023/10/16 07:22:32;;;;;;;0.00;0.00;;;;;;;8.77;100.00;102303.78;5104617;28;20024;-43
2023/10/16 07:25:10;;;;;;;0.00;0.00;;;;;;;8.77;100.00;102307.31;5109044;28;20058;-45
2023/10/16 07:27:46;;;;;;;0.00;0.00;;;;;;;8.81;100.00;102307.88;5109272;28;20043;-42
2023/10/16 07:30:21;;;;;;;0.00;0.00;;;;;;;8.87;100.00;102306.47;5112232;28;20023;-44
2023/10/16 07:32:47;;;;;;;0.00;0.00;;;;;;;8.90;100.00;102307.06;5115944;28;20504;-43
2023/10/16 07:35:17;;;;;;;0.00;0.00;;;;;;;8.96;100.00;102300.31;5113106;27;20028;-43
2023/10/16 07:37:42;;;;;;;0.00;0.00;;;;;;;9.07;100.00;102307.41;5115085;28;20110;-44
2023/10/16 07:40:08;;;;;;;0.00;0.00;;;;;;;9.15;100.00;102310.28;5112951;28;20114;-44
2023/10/16 07:42:35;;;;;;;0.00;0.00;;;;;;;9.14;100.00;102313.94;5109481;28;20032;-43
2023/10/16 07:45:01;;;;;;;0.00;0.00;;;;;;;9.18;100.00;102318.03;5110075;28;20153;-44
2023/10/16 07:47:26;;;;;;;0.00;0.00;;;;;;;9.23;100.00;102313.97;5112379;28;20517;-43
2023/10/16 07:49:51;;;;;;;0.00;0.00;;;;;;;9.29;100.00;102317.94;5113241;27;20354;-43
2023/10/16 07:52:18;;;;;;;0.00;0.00;;;;;;;9.40;100.00;102320.53;5113174;28;20023;-45
2023/10/16 07:54:43;;;;;;;0.00;0.00;;;;;;;9.54;100.00;102329.19;5114380;27;20099;-44
2023/10/16 07:57:09;;;;;;;0.00;0.00;;;;;;;9.54;100.00;102327.34;5110602;28;20031;-42
2023/10/16 07:59:36;;;;;;;0.00;0.00;;;;;;;9.60;100.00;102325.94;5113281;28;20212;-43
2023/10/16 08:02:04;;;;;;;0.00;0.00;;;;;;;9.65;100.00;102329.03;5105254;28;20542;-42
2023/10/16 08:04:35;;;;;;;0.00;0.00;;;;;;;9.72;100.00;102324.81;5110760;27;20012;-44
2023/10/16 08:07:04;;;;;;;0.00;0.00;;;;;;;9.69;100.00;102330.47;5090346;28;20108;-45
2023/10/16 08:09:48;;;;;;;0.00;0.00;;;;;;;9.70;100.00;102331.31;5107252;28;20427;-43
2023/10/16 08:12:34;;;;;;;0.00;0.00;;;;;;;9.66;100.00;102325.34;5111007;28;20550;-43
2023/10/16 08:15:08;;;;;;;0.00;0.00;;;;;;;9.63;100.00;102328.34;5114402;28;20715;-42
2023/10/16 08:17:34;;;;;;;0.00;0.00;;;;;;;9.65;100.00;102324.50;5106642;28;20036;-43
2023/10/16 08:20:00;;;;;;;0.00;0.00;;;;;;;9.71;100.00;102323.09;5113428;27;20023;-44
2023/10/16 08:22:26;;;;;;;0.00;0.00;;;;;;;9.82;100.00;102317.63;5112357;27;20504;-41
2023/10/16 08:24:57;;;;;;;0.00;0.00;;;;;;;9.93;100.00;102322.00;5114809;27;20034;-44
2023/10/16 08:27:40;;;;;;;0.00;0.00;;;;;;;10.01;100.00;102319.44;5111969;28;20076;-44
2023/10/16 08:30:32;;;;;;;0.00;0.00;;;;;;;10.03;100.00;102309.41;5092477;28;20462;-44
2023/10/16 08:33:06;;;;;;;0.00;0.00;;;;;;;9.98;100.00;102306.28;5110098;28;20032;-43
2023/10/16 08:35:38;;;;;;;0.00;0.00;;;;;;;10.01;100.00;102307.84;5111346;28;20040;-43
2023/10/16 08:38:25;;;;;;;0.00;0.00;;;;;;;9.94;100.00;102306.72;5110783;28;20442;-42
2023/10/16 08:40:57;;;;;;;0.00;0.00;;;;;;;9.97;100.00;102295.66;5108314;27;20106;-42
2023/10/16 08:43:39;;;;;;;0.00;0.00;;;;;;;10.10;100.00;102293.53;5111675;27;20058;-41
2023/10/16 08:46:18;;;;;;;0.00;0.00;;;;;;;10.16;100.00;102297.47;5109860;27;20452;-41
2023/10/16 08:48:44;;;;;;;0.00;0.00;;;;;;;10.17;100.00;102289.28;5107728;28;20067;-42
2023/10/16 08:51:10;;;;;;;0.00;0.00;;;;;;;10.22;100.00;102291.53;5111808;27;20039;-42
2023/10/16 08:53:36;;;;;;;0.00;0.00;;;;;;;10.30;100.00;102292.53;5105307;28;20024;-43
2023/10/16 08:56:07;;;;;;;0.00;0.00;;;;;;;10.23;100.00;102293.22;5115221;27;20038;-43
2023/10/16 08:58:38;;;;;;;0.00;0.00;;;;;;;10.26;100.00;102293.78;5101295;28;20036;-41
2023/10/16 09:01:07;;;;;;;0.00;0.00;;;;;;;10.24;100.00;102289.53;5109992;27;20028;-41
2023/10/16 09:03:35;;;;;;;0.00;0.00;;;;;;;10.27;100.00;102286.59;5077243;28;20056;-43
2023/10/16 09:06:04;;;;;;;0.00;0.00;;;;;;;10.32;100.00;102290.56;5066822;28;20132;-42
2023/10/16 09:08:33;;;;;;;0.00;0.00;;;;;;;10.42;100.00;102295.06;5066370;28;20020;-45
2023/10/16 09:11:05;;;;;;;0.00;0.00;;;;;;;10.60;100.00;102287.94;5067215;28;20032;-43
2023/10/16 09:13:36;;;;;;;0.00;0.00;;;;;;;10.79;100.00;102289.69;5068074;28;20115;-43
2023/10/16 09:16:03;;;;;;;0.00;0.00;;;;;;;10.89;100.00;102295.88;5070027;28;20040;-42
2023/10/16 09:18:31;;;;;;;0.00;0.00;;;;;;;11.02;100.00;102294.72;5071369;28;20024;-43
2023/10/16 09:21:00;;;;;;;0.00;0.00;;;;;;;11.08;100.00;102288.72;5071268;28;20025;-42
2023/10/16 09:23:36;;;;;;;0.00;0.00;;;;;;;11.01;100.00;102282.25;5072414;28;20036;-44
2023/10/16 09:26:02;;;;;;;0.00;0.00;;;;;;;10.99;100.00;102279.69;5072460;28;20066;-44
2023/10/16 09:28:32;;;;;;;0.00;0.00;;;;;;;11.10;100.00;102268.72;5054174;28;20028;-44
2023/10/16 09:31:01;;;;;;;0.00;0.00;;;;;;;11.23;100.00;102271.06;5071803;28;20031;-44
2023/10/16 09:33:27;;;;;;;0.00;0.00;;;;;;;11.27;100.00;102268.88;5071173;28;20039;-43
2023/10/16 09:35:59;;;;;;;0.00;0.00;;;;;;;11.34;100.00;102264.59;5068673;28;20033;-45
2023/10/16 09:38:32;;;;;;;0.00;0.00;;;;;;;11.45;100.00;102264.38;5068455;28;20097;-45
2023/10/16 09:43:56;;;;;;;0.00;0.00;;;;;;;11.41;100.00;102257.59;5070974;28;20406;-47
2023/10/16 09:46:48;;;;;;;0.00;0.00;;;;;;;11.71;100.00;102247.44;5100849;28;20090;-45
2023/10/16 09:49:15;;;;;;;0.00;0.00;;;;;;;11.62;100.00;102243.81;5051179;28;20072;-41
2023/10/16 09:51:44;;;;;;;0.00;0.00;;;;;;;11.83;100.00;102249.72;5062825;28;20106;-46
2023/10/16 09:54:10;;;;;;;0.00;0.00;;;;;;;12.01;100.00;102240.81;5071042;28;20028;-42
2023/10/16 09:56:39;;;;;;;0.00;0.00;;;;;;;11.96;100.00;102243.97;5070378;28;20028;-44
2023/10/16 09:59:22;;;;;;;0.00;0.00;;;;;;;12.11;100.00;102238.84;5071848;28;20390;-45
2023/10/16 10:01:51;;;;;;;0.00;0.00;;;;;;;12.30;100.00;102240.50;5075149;28;20043;-46
2023/10/16 10:04:19;;;;;;;0.00;0.00;;;;;;;12.41;100.00;102234.84;5108927;28;20473;-44
2023/10/16 10:06:46;;;;;;;0.00;0.00;;;;;;;12.53;100.00;102235.38;5107431;28;20023;-44
2023/10/16 10:12:14;;;;;;;0.00;0.00;;;;;;;12.61;100.00;102240.00;5093847;28;20091;-44
2023/10/16 10:14:49;;;;;;;0.00;0.00;;;;;;;12.54;100.00;102236.25;5093791;28;20043;-45
2023/10/16 10:17:20;;;;;;;0.00;0.00;;;;;;;12.59;100.00;102228.53;5093989;28;20024;-47
2023/10/16 10:19:54;;;;;;;0.00;0.00;;;;;;;12.61;100.00;102221.94;5111775;28;20036;-42
2023/10/16 10:22:27;;;;;;;0.00;0.00;;;;;;;13.07;100.00;102232.41;5111890;28;20114;-44
2023/10/16 10:25:07;;;;;;;0.00;0.00;;;;;;;13.35;100.00;102239.28;5111972;27;20092;-42
2023/10/16 10:27:34;;;;;;;0.00;0.00;;;;;;;13.29;100.00;102230.97;5111282;28;20023;-42
2023/10/16 10:30:02;;;;;;;0.00;0.00;;;;;;;13.20;100.00;102232.78;5111240;28;20259;-43
2023/10/16 10:32:28;;;;;;;0.00;0.00;;;;;;;13.52;100.00;102236.59;5128414;27;20042;-44
2023/10/16 10:35:26;;;;;;;0.00;0.00;;;;;;;13.71;100.00;102236.25;5131612;27;20026;-43
2023/10/16 10:38:21;;;;;;;0.00;0.00;;;;;;;13.75;100.00;102237.63;5097405;27;20037;-45
2023/10/16 10:41:06;;;;;;;0.00;0.00;;;;;;;13.32;100.00;102228.81;5103212;27;20220;-46
2023/10/16 10:43:46;;;;;;;0.00;0.00;;;;;;;13.05;100.00;102220.91;5121267;27;20023;-41
2023/10/16 10:46:20;;;;;;;0.00;0.00;;;;;;;12.94;100.00;102222.91;5123172;27;20057;-43
2023/10/16 10:48:46;;;;;;;0.00;0.00;;;;;;;12.95;100.00;102227.31;5109438;28;20110;-43
2023/10/16 10:51:14;;;;;;;0.00;0.00;;;;;;;13.06;100.00;102226.19;5111528;28;20413;-42
2023/10/16 10:53:58;;;;;;;0.00;0.00;;;;;;;13.21;100.00;102220.94;5111308;28;20030;-42
2023/10/16 10:56:52;;;;;;;0.00;0.00;;;;;;;13.29;100.00;102223.69;5097778;28;20115;-45
2023/10/16 10:59:40;;;;;;;0.00;0.00;;;;;;;13.50;100.00;102222.38;5104548;28;20031;-43
2023/10/16 11:02:22;;;;;;;0.00;0.00;;;;;;;13.63;100.00;102224.59;5109174;28;20104;-39
2023/10/16 11:04:59;;;;;;;0.00;0.00;;;;;;;13.84;100.00;102219.53;5112624;28;20055;-42
2023/10/16 11:07:45;;;;;;;0.00;0.00;;;;;;;13.79;100.00;102217.31;5130142;27;20038;-42
2023/10/16 11:10:12;;;;;;;0.00;0.00;;;;;;;13.81;100.00;102204.47;5095471;28;20439;-43
2023/10/16 11:12:38;;;;;;;0.00;0.00;;;;;;;13.83;100.00;102209.72;5115398;28;20381;-42
2023/10/16 11:15:10;;;;;;;0.00;0.00;;;;;;;14.10;100.00;102205.78;5116548;28;20020;-41
2023/10/16 11:17:37;;;;;;;0.00;0.00;;;;;;;14.20;100.00;102206.47;5116194;28;20106;-40
2023/10/16 11:22:45;;;;;;;0.00;0.00;;;;;;;13.85;100.00;102196.88;5117698;27;20476;-42
2023/10/16 11:25:14;;;;;;;0.00;0.00;;;;;;;13.74;100.00;102200.75;5125494;27;20034;-44
2023/10/16 11:27:42;;;;;;;0.00;0.00;;;;;;;13.91;100.00;102198.06;5101993;28;20055;-42
2023/10/16 11:30:11;;;;;;;0.00;0.00;;;;;;;14.17;100.00;102193.28;5093613;28;20374;-42
2023/10/16 11:32:41;;;;;;;0.00;0.00;;;;;;;14.20;100.00;102184.78;5115064;28;20034;-43
2023/10/16 11:35:14;;;;;;;0.00;0.00;;;;;;;14.35;100.00;102186.78;5114896;28;20059;-42
2023/10/16 11:37:43;;;;;;;0.00;0.00;;;;;;;14.49;100.00;102188.78;5115150;28;20085;-44
2023/10/16 11:40:18;;;;;;;0.00;0.00;;;;;;;14.37;100.00;102182.03;5117849;27;20035;-44
2023/10/16 11:42:45;;;;;;;0.00;0.00;;;;;;;14.43;100.00;102173.22;5108497;27;20032;-44
2023/10/16 11:45:18;;;;;;;0.00;0.00;;;;;;;14.60;100.00;102180.28;5094967;28;20118;-43
2023/10/16 11:47:43;;;;;;;0.00;0.00;;;;;;;14.58;100.00;102171.47;5107588;27;20693;-44
2023/10/16 11:50:15;;;;;;;0.00;0.00;;;;;;;14.45;100.00;102171.16;5115275;28;20027;-45
2023/10/16 11:52:41;;;;;;;0.00;0.00;;;;;;;14.64;100.00;102168.09;5114915;27;20024;-41
2023/10/16 11:55:08;;;;;;;0.00;0.00;;;;;;;14.63;100.00;102160.13;5106765;28;20038;-44
2023/10/16 11:57:33;;;;;;;0.00;0.00;;;;;;;14.87;100.00;102164.56;5116018;27;20032;-43
2023/10/16 12:00:10;;;;;;;0.00;0.00;;;;;;;14.95;100.00;102158.25;5116966;27;20088;-41
2023/10/16 12:02:38;;;;;;;0.00;0.00;;;;;;;14.84;100.00;102152.22;5114276;28;20454;-43
2023/10/16 12:05:05;;;;;;;0.00;0.00;;;;;;;14.64;100.00;102156.38;5121023;27;20046;-44
2023/10/16 12:07:31;;;;;;;0.00;0.00;;;;;;;14.63;100.00;102152.00;5116770;27;20035;-43
2023/10/16 12:10:01;;;;;;;0.00;0.00;;;;;;;14.39;100.00;102147.50;5114549;28;20028;-44
2023/10/16 12:12:28;;;;;;;0.00;0.00;;;;;;;14.25;100.00;102152.63;5113610;28;20038;-44
2023/10/16 12:14:54;;;;;;;0.00;0.00;;;;;;;14.15;100.00;102146.56;5118471;27;20638;-42
2023/10/16 12:17:20;;;;;;;0.00;0.00;;;;;;;14.20;100.00;102146.88;5114883;27;20134;-44
2023/10/16 12:19:46;;;;;;;0.00;0.00;;;;;;;14.33;100.00;102145.50;5121138;27;20062;-42
2023/10/16 12:22:15;;;;;;;0.00;0.00;;;;;;;14.42;100.00;102142.56;5112585;27;20027;-44
2023/10/16 12:24:43;;;;;;;0.00;0.00;;;;;;;14.30;100.00;102137.69;5127639;27;20024;-42
2023/10/16 12:27:09;;;;;;;0.00;0.00;;;;;;;14.09;100.00;102136.44;5114018;28;20019;-42
2023/10/16 12:29:35;;;;;;;0.00;0.00;;;;;;;14.10;100.00;102127.28;5113414;27;20039;-42
2023/10/16 12:32:03;;;;;;;0.00;0.00;;;;;;;14.50;100.00;102128.16;5112426;28;20043;-41
2023/10/16 12:34:32;;;;;;;0.00;0.00;;;;;;;14.83;100.00;102128.03;5113647;28;20024;-44
2023/10/16 12:36:58;;;;;;;0.00;0.00;;;;;;;15.03;100.00;102123.81;5113847;28;20069;-43
2023/10/16 12:39:26;;;;;;;0.00;0.00;;;;;;;15.31;100.00;102123.28;5094849;28;20031;-45
2023/10/16 12:41:55;;;;;;;0.00;0.00;;;;;;;15.58;100.00;102125.38;5112640;28;20106;-43
2023/10/16 12:44:23;;;;;;;0.00;0.00;;;;;;;15.62;100.00;102125.88;5113731;28;20050;-42
2023/10/16 12:46:49;;;;;;;;;;;;;;;15.84;100.00;102118.72;5111387;28;20027;-42
2023/10/16 12:49:14;;;;;;;0.00;0.00;;;;;;;15.69;100.00;102117.88;5114596;27;20218;-45
2023/10/16 12:51:41;;;;;;;0.00;0.00;;;;;;;15.70;100.00;102114.16;5113934;27;20505;-45
2023/10/16 12:54:07;;;;;;;0.00;0.00;;;;;;;15.72;100.00;102112.09;5109601;28;20036;-42
2023/10/16 12:56:35;;;;;;;0.00;0.00;;;;;;;15.75;100.00;102117.97;5112889;28;20034;-44
2023/10/16 12:59:03;;;;;;;0.00;0.00;;;;;;;15.56;100.00;102113.03;5072000;28;20484;-42
2023/10/16 13:01:29;;;;;;;0.00;0.00;;;;;;;15.58;100.00;102119.13;5110694;28;20468;-42
2023/10/16 13:04:00;;;;;;;0.00;0.00;;;;;;;15.73;100.00;102113.78;5112753;28;21602;-42
2023/10/16 13:06:29;;;;;;;0.00;0.00;;;;;;;15.82;100.00;102109.94;5095402;28;20031;-43
2023/10/16 13:08:57;;;;;;;0.00;0.00;;;;;;;15.86;100.00;102115.84;5119683;27;20027;-44
2023/10/16 13:11:24;;;;;;;0.00;0.00;;;;;;;15.98;100.00;102109.78;5133659;27;20062;-45
2023/10/16 13:13:50;;;;;;;0.00;0.00;;;;;;;15.97;100.00;102113.50;5131580;27;20028;-43
2023/10/16 13:16:24;;;;;;;0.00;0.00;;;;;;;15.87;100.00;102115.66;5112352;28;20065;-45
2023/10/16 13:18:55;;;;;;;0.00;0.00;;;;;;;15.53;100.00;102113.41;5113021;27;20035;-44
2023/10/16 13:21:32;;;;;;;0.00;0.00;;;;;;;15.35;100.00;102111.88;5112927;28;20526;-43
2023/10/16 13:23:58;;;;;;;0.00;0.00;;;;;;;15.11;100.00;102117.47;5112057;27;20096;-46
2023/10/16 13:26:23;;;;;;;0.00;0.00;;;;;;;14.91;100.00;102111.72;5109875;28;20031;-43
2023/10/16 13:28:49;;;;;;;0.00;0.00;;;;;;;14.68;100.00;102114.38;5125190;27;20039;-46
2023/10/16 13:31:15;;;;;;;0.00;0.00;;;;;;;14.44;100.00;102112.59;5111996;28;20297;-41